Terminal Aerodrome Forecast
Issued by NWS

Home | Current Version | Previous Version | Text Only | Print | Product List | Glossary On
Versions: 1 2 3 4 5 6 7 8 9 10 11 12 13 14 15 16 17 18 19 20 21 22 23 24 25 26
455
FTUS41 KPBZ 011720
TAFFKL
TAF
KFKL 011720Z 0118/0218 24008KT P6SM VCSH SCT015 BKN045
     FM020600 VRB03KT 2SM -SHRA BR OVC003
     FM021500 33006KT P6SM OVC012
      AMD LTD TO CLD VIS AND WIND=

USA.gov is the U.S. government's official web portal to all federal, state and local government web resources and services.